Time;durP1;ratioP1;P1;durP2;ratioP2;P2;SDS_P1;SDS_P2;PMS_P1;PMS_P2;Temp;Humidity;BMP_temperature;BMP_pressure;BME280_temperature;BME280_humidity;BME280_pressure;Samples;Min_cycle;Max_cycle;Signal;HPM_P1;HPM_P2
2024/04/09 00:00:21;;;;;;;;;;;;;;;8.40;100.00;101220.38;5561350;25;20224;-65
2024/04/09 00:02:47;;;;;;;;;;;;;;;8.37;100.00;101211.69;5562776;25;19927;-68
2024/04/09 00:05:13;;;;;;;;;;;;;;;8.38;100.00;101217.81;5492179;26;19934;-68
2024/04/09 00:07:38;;;;;;;;;;;;;;;8.40;100.00;101215.06;5551451;25;19954;-70
2024/04/09 00:10:08;;;;;;;;;;;;;;;8.40;100.00;101215.06;5561636;25;19927;-70
2024/04/09 00:12:35;;;;;;;;;;;;;;;8.41;100.00;101211.44;5561139;25;20372;-69
2024/04/09 00:15:01;;;;;;;;;;;;;;;8.46;100.00;101219.81;5527857;25;19934;-68
2024/04/09 00:17:34;;;;;;;;;;;;;;;8.51;100.00;101212.28;5566698;25;19971;-66
2024/04/09 00:19:59;;;;;;;;;;;;;;;8.51;100.00;101209.63;5537519;25;19934;-68
2024/04/09 00:22:27;;;;;;;;;;;;;;;8.47;100.00;101205.56;5574498;25;19926;-66
2024/04/09 00:24:53;;;;;;;;;;;;;;;8.42;100.00;101213.09;5571904;25;20385;-69
2024/04/09 00:27:18;;;;;;;;;;;;;;;8.36;100.00;101210.00;5561628;25;19927;-69
2024/04/09 00:29:44;;;;;;;;;;;;;;;8.32;100.00;101213.03;5527823;25;19927;-68
2024/04/09 00:32:09;;;;;;;;;;;;;;;8.33;100.00;101214.72;5560783;25;19933;-68
2024/04/09 00:34:38;;;;;;;;;;;;;;;8.38;100.00;101221.34;5561020;25;20343;-67
2024/04/09 00:37:04;;;;;;;;;;;;;;;8.47;100.00;101224.16;5560268;25;19933;-68
2024/04/09 00:39:33;;;;;;;;;;;;;;;8.54;100.00;101217.31;5562439;25;19934;-69
2024/04/09 00:41:59;;;;;;;;;;;;;;;8.55;100.00;101219.81;5566233;25;19927;-69
2024/04/09 00:44:29;;;;;;;;;;;;;;;8.55;100.00;101218.97;5565083;25;19933;-70
2024/04/09 00:46:56;;;;;;;;;;;;;;;8.49;100.00;101224.84;5564240;25;19934;-67
2024/04/09 00:49:22;;;;;;;;;;;;;;;8.43;100.00;101212.13;5531228;25;19926;-69
2024/04/09 00:51:49;;;;;;;;;;;;;;;8.42;100.00;101218.41;5564012;25;19927;-69
2024/04/09 00:54:17;;;;;;;;;;;;;;;8.45;100.00;101218.13;5564434;25;20380;-69
2024/04/09 00:56:43;;;;;;;;;;;;;;;8.48;100.00;101218.69;5565289;25;19927;-69
2024/04/09 00:59:12;;;;;;;;;;;;;;;8.55;100.00;101224.28;5564569;25;19927;-69
2024/04/09 01:01:40;;;;;;;;;;;;;;;8.60;100.00;101227.34;5565197;25;19928;-69
2024/04/09 01:04:05;;;;;;;;;;;;;;;8.64;100.00;101234.91;5563708;25;19967;-69
2024/04/09 01:06:31;;;;;;;;;;;;;;;8.67;100.00;101239.09;5564723;25;19934;-69
2024/04/09 01:08:56;;;;;;;;;;;;;;;8.67;100.00;101231.13;5564373;25;19935;-66
2024/04/09 01:11:22;;;;;;;;;;;;;;;8.69;100.00;101223.91;5564077;25;19938;-65
2024/04/09 01:13:47;;;;;;;;;;;;;;;8.74;100.00;101223.47;5565832;25;19927;-68
2024/04/09 01:16:12;;;;;;;;;;;;;;;8.79;100.00;101226.53;5565173;25;20370;-68
2024/04/09 01:18:38;;;;;;;;;;;;;;;8.79;100.00;101221.22;5563712;25;19995;-71
2024/04/09 01:21:03;;;;;;;;;;;;;;;8.79;100.00;101230.03;5531026;25;19958;-68
2024/04/09 01:23:28;;;;;;;;;;;;;;;8.81;100.00;101233.38;5563714;25;19931;-67
2024/04/09 01:25:54;;;;;;;;;;;;;;;8.84;100.00;101235.75;5530677;25;19933;-68
2024/04/09 01:28:19;;;;;;;;;;;;;;;8.81;100.00;101246.66;5531785;25;19963;-68
2024/04/09 01:30:46;;;;;;;;;;;;;;;8.78;100.00;101235.50;5531053;25;20949;-68
2024/04/09 01:33:11;;;;;;;;;;;;;;;8.77;100.00;101234.66;5563784;25;20374;-69
2024/04/09 01:35:38;;;;;;;;;;;;;;;8.72;100.00;101230.75;5500182;25;20006;-68
2024/04/09 01:38:04;;;;;;;;;;;;;;;8.76;100.00;101235.63;5563523;25;19927;-68
2024/04/09 01:40:30;;;;;;;;;;;;;;;8.77;100.00;101239.13;5562869;25;19938;-68
2024/04/09 01:42:55;;;;;;;;;;;;;;;8.74;100.00;101234.94;5564962;25;19934;-68
2024/04/09 01:45:21;;;;;;;;;;;;;;;8.75;100.00;101241.91;5568633;25;19930;-66
2024/04/09 01:47:46;;;;;;;;;;;;;;;8.79;100.00;101237.16;5570568;25;19972;-67
2024/04/09 01:50:11;;;;;;;;;;;;;;;8.83;100.00;101242.06;5569907;25;19927;-70
2024/04/09 01:52:37;;;;;;;;;;;;;;;8.85;100.00;101236.59;5570578;25;19927;-70
2024/04/09 01:55:05;;;;;;;;;;;;;;;8.86;100.00;101228.50;5563717;25;19927;-68
2024/04/09 01:57:31;;;;;;;;;;;;;;;8.90;100.00;101231.69;5563332;25;19933;-71
2024/04/09 01:59:56;;;;;;;;;;;;;;;8.95;100.00;101232.94;5532158;25;19927;-69
2024/04/09 02:02:22;;;;;;;;;;;;;;;8.99;100.00;101225.56;5531026;25;19927;-67
2024/04/09 02:04:47;;;;;;;;;;;;;;;8.98;100.00;101229.22;5530651;25;20258;-70
2024/04/09 02:07:13;;;;;;;;;;;;;;;8.97;100.00;101231.03;5563372;25;19927;-70
2024/04/09 02:09:38;;;;;;;;;;;;;;;8.99;100.00;101222.91;5563444;25;19927;-68
2024/04/09 02:12:03;;;;;;;;;;;;;;;8.99;100.00;101218.44;5563874;25;19995;-70
2024/04/09 02:14:29;;;;;;;;;;;;;;;9.00;100.00;101225.44;5530331;25;19935;-70
2024/04/09 02:16:55;;;;;;;;;;;;;;;8.99;100.00;101223.75;5566217;25;19927;-68
2024/04/09 02:19:21;;;;;;;;;;;;;;;8.99;100.00;101222.91;5563520;25;19968;-68
2024/04/09 02:21:46;;;;;;;;;;;;;;;9.02;100.00;101227.94;5530682;25;19946;-67
2024/04/09 02:24:12;;;;;;;;;;;;;;;9.02;100.00;101224.44;5562941;25;19927;-70
2024/04/09 02:26:37;;;;;;;;;;;;;;;9.05;100.00;101232.13;5530517;25;20390;-67
2024/04/09 02:29:02;;;;;;;;;;;;;;;9.05;100.00;101232.97;5563041;25;19995;-68
2024/04/09 02:31:28;;;;;;;;;;;;;;;9.07;100.00;101235.47;5563491;25;19966;-68
2024/04/09 02:33:53;;;;;;;;;;;;;;;9.09;100.00;101234.34;5563780;25;20336;-70
2024/04/09 02:36:18;;;;;;;;;;;;;;;9.09;100.00;101236.19;5562969;25;19939;-68
2024/04/09 02:38:44;;;;;;;;;;;;;;;9.13;100.00;101240.22;5563264;25;19927;-68
2024/04/09 02:41:13;;;;;;;;;;;;;;;9.15;100.00;101246.22;5563722;25;20377;-71
2024/04/09 02:43:38;;;;;;;;;;;;;;;9.18;100.00;101240.63;5530558;25;19935;-69
2024/04/09 02:46:04;;;;;;;;;;;;;;;9.21;100.00;101245.66;5531345;25;19931;-70
2024/04/09 02:48:30;;;;;;;;;;;;;;;9.22;100.00;101239.38;5565120;25;20319;-68
2024/04/09 02:51:00;;;;;;;;;;;;;;;9.23;100.00;101254.31;5563916;25;19935;-68
2024/04/09 02:53:25;;;;;;;;;;;;;;;9.24;100.00;101248.03;5563394;25;19934;-72
2024/04/09 02:55:59;;;;;;;;;;;;;;;9.22;100.00;101250.00;5562978;25;19927;-70
2024/04/09 02:58:25;;;;;;;;;;;;;;;9.20;100.00;101246.63;5531801;25;20281;-69
2024/04/09 03:00:54;;;;;;;;;;;;;;;9.19;100.00;101244.97;5565179;25;19927;-67
2024/04/09 03:03:19;;;;;;;;;;;;;;;9.19;100.00;101251.13;5562536;25;19935;-69
2024/04/09 03:05:45;;;;;;;;;;;;;;;9.18;100.00;101248.59;5562877;25;19985;-70
2024/04/09 03:08:10;;;;;;;;;;;;;;;9.21;100.00;101250.97;5529617;25;19927;-68
2024/04/09 03:10:36;;;;;;;;;;;;;;;9.24;100.00;101248.03;5529821;25;19934;-68
2024/04/09 03:13:02;;;;;;;;;;;;;;;9.27;100.00;101253.94;5562251;25;19927;-66
2024/04/09 03:15:29;;;;;;;;;;;;;;;9.30;100.00;101252.81;5529618;25;19927;-69
2024/04/09 03:17:55;;;;;;;;;;;;;;;9.31;100.00;101244.69;5563323;25;19934;-67
2024/04/09 03:20:20;;;;;;;;;;;;;;;9.34;100.00;101243.56;5565910;25;19927;-70
2024/04/09 03:22:45;;;;;;;;;;;;;;;9.43;100.00;101242.69;5563208;25;19993;-67
2024/04/09 03:25:19;;;;;;;;;;;;;;;9.49;100.00;101231.47;5565983;25;19935;-69
2024/04/09 03:27:51;;;;;;;;;;;;;;;9.54;100.00;101239.88;5532889;25;20386;-69
2024/04/09 03:30:17;;;;;;;;;;;;;;;9.57;100.00;101236.94;5529839;25;19934;-68
2024/04/09 03:32:43;;;;;;;;;;;;;;;9.60;100.00;101236.63;5562186;25;19959;-69
2024/04/09 03:35:08;;;;;;;;;;;;;;;9.65;100.00;101236.19;5562874;25;20379;-67
2024/04/09 03:37:33;;;;;;;;;;;;;;;9.69;100.00;101231.44;5529059;25;19934;-70
2024/04/09 03:39:59;;;;;;;;;;;;;;;9.70;100.00;101236.59;5562009;25;20334;-67
2024/04/09 03:42:24;;;;;;;;;;;;;;;9.70;100.00;101235.75;5562268;25;20377;-69
2024/04/09 03:44:50;;;;;;;;;;;;;;;9.73;100.00;101230.16;5529448;25;19933;-68
2024/04/09 03:47:15;;;;;;;;;;;;;;;9.77;100.00;101229.72;5562271;25;19934;-70
2024/04/09 03:49:40;;;;;;;;;;;;;;;9.80;100.00;101225.91;5562136;25;20374;-66
2024/04/09 03:52:06;;;;;;;;;;;;;;;9.84;100.00;101229.97;5563658;25;19934;-67
2024/04/09 03:54:32;;;;;;;;;;;;;;;9.87;100.00;101225.22;5561484;25;19931;-67
2024/04/09 03:57:03;;;;;;;;;;;;;;;9.99;100.00;101223.19;5561487;25;19927;-70
2024/04/09 03:59:28;;;;;;;;;;;;;;;10.13;100.00;101217.38;5561777;25;19926;-68
2024/04/09 04:01:54;;;;;;;;;;;;;;;10.16;100.00;101227.72;5528625;25;19934;-71
2024/04/09 04:04:19;;;;;;;;;;;;;;;10.17;100.00;101225.91;5528131;25;19927;-67
2024/04/09 04:06:44;;;;;;;;;;;;;;;10.13;100.00;101235.16;5564612;25;19971;-69
2024/04/09 04:09:10;;;;;;;;;;;;;;;10.10;100.00;101236.28;5562126;25;19960;-70
2024/04/09 04:11:35;;;;;;;;;;;;;;;10.10;100.00;101236.28;5561332;25;19934;-70
2024/04/09 04:14:01;;;;;;;;;;;;;;;10.12;100.00;101237.00;5530972;25;19927;-69
2024/04/09 04:16:26;;;;;;;;;;;;;;;10.13;100.00;101233.34;5532248;25;19995;-67
2024/04/09 04:18:52;;;;;;;;;;;;;;;10.16;100.00;101241.03;5564939;25;19954;-68
2024/04/09 04:21:20;;;;;;;;;;;;;;;10.19;100.00;101235.41;5565719;25;19934;-70
2024/04/09 04:23:47;;;;;;;;;;;;;;;10.26;100.00;101237.50;5566709;25;19927;-67
2024/04/09 04:26:16;;;;;;;;;;;;;;;10.27;100.00;101242.69;5565054;25;19994;-69
2024/04/09 04:28:42;;;;;;;;;;;;;;;10.34;100.00;101233.09;5567236;25;19927;-68
2024/04/09 04:31:11;;;;;;;;;;;;;;;10.40;100.00;101235.16;5569383;25;19927;-71
2024/04/09 04:33:38;;;;;;;;;;;;;;;10.46;100.00;101237.25;5564928;25;19927;-68
2024/04/09 04:36:04;;;;;;;;;;;;;;;10.49;100.00;101241.44;5566001;25;19927;-69
2024/04/09 04:38:29;;;;;;;;;;;;;;;10.50;100.00;101235.94;5502026;25;19934;-71
2024/04/09 04:40:54;;;;;;;;;;;;;;;10.53;100.00;101235.66;5566146;25;19959;-68
2024/04/09 04:43:27;;;;;;;;;;;;;;;10.51;100.00;101242.13;5574201;25;19933;-67
2024/04/09 04:45:54;;;;;;;;;;;;;;;10.45;100.00;101250.72;5573097;25;19971;-69
2024/04/09 04:48:19;;;;;;;;;;;;;;;10.40;100.00;101255.63;5538861;25;19934;-71
2024/04/09 04:50:45;;;;;;;;;;;;;;;10.42;100.00;101259.00;5570130;25;19926;-73
2024/04/09 04:53:11;;;;;;;;;;;;;;;10.41;100.00;101260.81;5565193;25;19927;-69
2024/04/09 04:55:36;;;;;;;;;;;;;;;10.46;100.00;101266.53;5532469;25;20038;-69
2024/04/09 04:58:02;;;;;;;;;;;;;;;10.53;100.00;101256.94;5565612;25;19927;-76
2024/04/09 05:00:28;;;;;;;;;;;;;;;10.64;100.00;101258.56;5564814;25;19931;-74
2024/04/09 05:02:53;;;;;;;;;;;;;;;10.76;100.00;101254.69;5564489;25;19927;-68
2024/04/09 05:05:18;;;;;;;;;;;;;;;10.86;100.00;101243.94;5500814;25;19994;-70
2024/04/09 05:07:44;;;;;;;;;;;;;;;10.92;99.63;101243.34;5562618;25;20496;-70
2024/04/09 05:10:12;;;;;;;;;;;;;;;10.94;99.12;101245.84;5568533;25;19950;-69
2024/04/09 05:12:42;;;;;;;;;;;;;;;10.91;99.15;101249.66;5551353;25;20011;-71
2024/04/09 05:15:09;;;;;;;;;;;;;;;10.90;98.92;101249.81;5519021;26;19939;-70
2024/04/09 05:17:35;;;;;;;;;;;;;;;10.92;98.72;101248.66;5569991;25;20378;-72
2024/04/09 05:20:03;;;;;;;;;;;;;;;10.94;98.85;101251.16;5510129;26;19927;-72
2024/04/09 05:22:29;;;;;;;;;;;;;;;10.93;98.86;101255.66;5540773;25;19999;-71
2024/04/09 05:24:55;;;;;;;;;;;;;;;10.96;98.61;101252.69;5539376;25;20374;-70
2024/04/09 05:27:21;;;;;;;;;;;;;;;10.94;98.86;101251.16;5527500;25;20040;-71
2024/04/09 05:29:46;;;;;;;;;;;;;;;10.98;99.55;101248.03;5541377;25;19928;-70
2024/04/09 05:32:11;;;;;;;;;;;;;;;11.05;98.78;101253.63;5525537;25;20323;-68
2024/04/09 05:34:37;;;;;;;;;;;;;;;11.03;98.36;101252.94;5544776;25;19931;-70
2024/04/09 05:37:03;;;;;;;;;;;;;;;11.11;98.72;101250.34;5531513;25;19934;-69
2024/04/09 05:39:28;;;;;;;;;;;;;;;11.17;97.51;101247.06;5507496;25;19939;-70
2024/04/09 05:41:54;;;;;;;;;;;;;;;11.24;97.34;101248.09;5548463;25;20429;-70
2024/04/09 05:44:19;;;;;;;;;;;;;;;11.30;96.92;101247.50;5555758;25;20295;-69
2024/04/09 05:46:51;;;;;;;;;;;;;;;11.39;96.17;101248.38;5508028;26;19927;-68
2024/04/09 05:49:20;;;;;;;;;;;;;;;11.33;95.93;101244.53;5553700;25;19993;-69
2024/04/09 05:51:45;;;;;;;;;;;;;;;11.22;95.66;101244.75;5558033;25;19938;-71
2024/04/09 05:54:11;;;;;;;;;;;;;;;11.19;96.12;101245.06;5561508;25;19926;-71
2024/04/09 05:56:36;;;;;;;;;;;;;;;11.26;96.36;101246.09;5529542;25;19934;-69
2024/04/09 05:59:01;;;;;;;;;;;;;;;11.29;95.88;101243.16;5529015;25;20274;-71
2024/04/09 06:01:27;;;;;;;;;;;;;;;11.35;95.40;101242.53;5561547;25;19998;-72
2024/04/09 06:03:52;;;;;;;;;;;;;;;11.35;95.44;101245.19;5561405;25;19927;-69
2024/04/09 06:06:17;;;;;;;;;;;;;;;11.43;95.81;101247.06;5528257;25;19927;-69
2024/04/09 06:08:43;;;;;;;;;;;;;;;11.60;95.67;101242.69;5561517;25;20342;-69
2024/04/09 06:11:08;;;;;;;;;;;;;;;11.73;95.12;101256.44;5528435;25;19964;-72
2024/04/09 06:13:33;;;;;;;;;;;;;;;11.87;92.69;101257.72;5529721;25;19927;-71
2024/04/09 06:15:58;;;;;;;;;;;;;;;12.02;92.58;101264.13;5528934;25;19934;-70
2024/04/09 06:18:24;;;;;;;;;;;;;;;12.14;91.12;101256.66;5561521;25;19938;-70
2024/04/09 06:20:49;;;;;;;;;;;;;;;12.20;89.74;101264.06;5561519;25;19933;-71
2024/04/09 06:23:14;;;;;;;;;;;;;;;12.24;90.37;101268.06;5561078;25;20376;-71
2024/04/09 06:25:40;;;;;;;;;;;;;;;12.40;90.71;101268.94;5497698;25;19927;-70
2024/04/09 06:28:06;;;;;;;;;;;;;;;12.53;89.53;101273.84;5563762;25;19927;-71
2024/04/09 06:30:31;;;;;;;;;;;;;;;12.64;89.73;101270.03;5561331;25;20289;-71
2024/04/09 06:33:00;;;;;;;;;;;;;;;12.76;88.63;101268.72;5561218;25;19931;-71
2024/04/09 06:35:25;;;;;;;;;;;;;;;12.88;86.97;101269.22;5561655;25;19927;-71
2024/04/09 06:37:51;;;;;;;;;;;;;;;12.99;87.52;101259.03;5559719;25;19933;-71
2024/04/09 06:40:16;;;;;;;;;;;;;;;13.19;87.70;101264.09;5528231;25;19933;-69
2024/04/09 06:42:41;;;;;;;;;;;;;;;13.35;86.63;101264.09;5528424;25;19927;-70
2024/04/09 06:45:07;;;;;;;;;;;;;;;13.32;82.97;101265.28;5562185;25;19927;-73
2024/04/09 06:47:32;;;;;;;;;;;;;;;13.21;84.03;101273.63;5528677;25;19927;-69
2024/04/09 06:50:04;;;;;;;;;;;;;;;13.12;83.83;101274.59;5561765;25;19927;-71
2024/04/09 06:52:29;;;;;;;;;;;;;;;13.06;83.11;101280.63;5562055;25;19954;-74
2024/04/09 06:54:55;;;;;;;;;;;;;;;13.15;84.94;101278.78;5562096;25;19995;-72
2024/04/09 06:57:20;;;;;;;;;;;;;;;13.18;84.97;101279.31;5529796;25;19927;-71
2024/04/09 06:59:45;;;;;;;;;;;;;;;13.16;84.37;101280.44;5563384;25;19927;-70
2024/04/09 07:02:11;;;;;;;;;;;;;;;13.09;85.02;101285.63;5561340;25;20006;-73
2024/04/09 07:04:36;;;;;;;;;;;;;;;12.90;85.29;101292.13;5552798;25;19939;-75
2024/04/09 07:07:03;;;;;;;;;;;;;;;12.83;85.57;101283.09;5536144;25;19955;-68
2024/04/09 07:09:28;;;;;;;;;;;;;;;12.79;86.70;101288.94;5536852;25;20686;-71
2024/04/09 07:11:53;;;;;;;;;;;;;;;12.79;87.17;101294.28;5561206;25;19995;-72
2024/04/09 07:14:19;;;;;;;;;;;;;;;12.74;87.10;101299.28;5497310;25;19927;-71
2024/04/09 07:16:44;;;;;;;;;;;;;;;12.71;87.78;101295.91;5561686;25;20352;-71
2024/04/09 07:19:09;;;;;;;;;;;;;;;12.73;87.64;101287.78;5528423;25;19927;-75
2024/04/09 07:21:35;;;;;;;;;;;;;;;12.82;87.90;101291.28;5560757;25;20442;-70
2024/04/09 07:24:01;;;;;;;;;;;;;;;12.88;87.38;101293.28;5561649;25;19963;-74
2024/04/09 07:26:26;;;;;;;;;;;;;;;12.91;87.34;101282.25;5468850;26;20015;-69
2024/04/09 07:28:51;;;;;;;;;;;;;;;13.07;87.17;101287.66;5522901;26;19943;-72
2024/04/09 07:31:18;;;;;;;;;;;;;;;13.17;86.71;101292.81;5490485;26;19927;-71
2024/04/09 07:33:48;;;;;;;;;;;;;;;13.23;86.28;101293.00;5523351;26;19928;-69
2024/04/09 07:36:13;;;;;;;;;;;;;;;13.31;85.33;101287.69;5522524;26;19927;-71
2024/04/09 07:38:39;;;;;;;;;;;;;;;13.45;85.98;101288.84;5522503;26;19994;-70
2024/04/09 07:41:04;;;;;;;;;;;;;;;13.54;85.40;101285.16;5544665;25;19995;-69
2024/04/09 07:43:30;;;;;;;;;;;;;;;13.64;84.63;101290.34;5559737;25;19957;-72
2024/04/09 07:45:56;;;;;;;;;;;;;;;13.71;84.73;101285.97;5526965;25;19938;-73
2024/04/09 07:48:22;;;;;;;;;;;;;;;13.72;84.30;101287.63;5562380;25;20366;-68
2024/04/09 07:50:47;;;;;;;;;;;;;;;13.73;83.48;101283.94;5563518;25;19938;-72
2024/04/09 07:53:13;;;;;;;;;;;;;;;13.78;84.17;101286.94;5563862;25;20378;-70
2024/04/09 07:55:38;;;;;;;;;;;;;;;13.87;84.07;101283.22;5564320;25;20280;-70
2024/04/09 07:58:03;;;;;;;;;;;;;;;13.92;82.56;101272.88;5565039;25;20429;-72
2024/04/09 08:00:29;;;;;;;;;;;;;;;13.92;83.10;101280.91;5536982;25;20347;-72
2024/04/09 08:02:54;;;;;;;;;;;;;;;13.95;84.44;101271.69;5570507;25;19934;-70
2024/04/09 08:05:20;;;;;;;;;;;;;;;13.90;83.29;101274.06;5567056;25;19994;-71
2024/04/09 08:07:45;;;;;;;;;;;;;;;13.83;82.80;101279.22;5565214;25;20378;-69
2024/04/09 08:10:13;;;;;;;;;;;;;;;13.75;82.51;101271.22;5532064;25;19963;-70
2024/04/09 08:12:52;;;;;;;;;;;;;;;13.67;83.44;101268.59;5565391;25;20370;-70
2024/04/09 08:15:22;;;;;;;;;;;;;;;13.71;85.61;101274.41;5565086;25;19934;-71
2024/04/09 08:17:48;;;;;;;;;;;;;;;13.75;85.21;101279.25;5565868;25;19959;-70
2024/04/09 08:20:17;;;;;;;;;;;;;;;13.75;85.28;101271.22;5566352;25;19927;-70
2024/04/09 08:22:43;;;;;;;;;;;;;;;13.66;83.06;101276.78;5564913;25;20278;-70
2024/04/09 08:25:08;;;;;;;;;;;;;;;13.41;84.53;101273.28;5564421;25;19938;-73
2024/04/09 08:27:36;;;;;;;;;;;;;;;13.27;85.42;101272.94;5564757;25;19927;-70
2024/04/09 08:30:03;;;;;;;;;;;;;;;13.32;86.34;101281.34;5534461;25;19927;-70
2024/04/09 08:32:29;;;;;;;;;;;;;;;13.56;86.23;101280.44;5515215;25;19934;-72
2024/04/09 08:34:55;;;;;;;;;;;;;;;13.77;85.88;101285.28;5566177;25;19927;-71
2024/04/09 08:37:20;;;;;;;;;;;;;;;13.93;84.50;101279.91;5562998;25;19926;-72
2024/04/09 08:39:51;;;;;;;;;;;;;;;14.05;84.27;101292.91;5565054;25;20267;-71
2024/04/09 08:42:17;;;;;;;;;;;;;;;14.14;83.52;101286.50;5569554;25;19943;-68
2024/04/09 08:44:45;;;;;;;;;;;;;;;14.24;82.29;101292.50;5574400;25;19927;-68
2024/04/09 08:47:10;;;;;;;;;;;;;;;14.09;80.66;101283.50;5537224;25;19934;-69
2024/04/09 08:49:36;;;;;;;;;;;;;;;14.02;81.93;101287.91;5488209;26;20270;-71
2024/04/09 08:52:02;;;;;;;;;;;;;;;14.09;82.96;101294.22;5529170;26;19934;-70
2024/04/09 08:54:28;;;;;;;;;;;;;;;14.24;82.50;101292.50;5528917;25;19934;-68
2024/04/09 08:56:54;;;;;;;;;;;;;;;14.38;82.24;101290.94;5494515;26;19951;-72
2024/04/09 08:59:21;;;;;;;;;;;;;;;14.54;82.29;101283.69;5493457;26;19995;-71
2024/04/09 09:01:46;;;;;;;;;;;;;;;14.76;82.10;101289.28;5526633;26;20286;-72
2024/04/09 09:04:13;;;;;;;;;;;;;;;14.96;81.18;101292.31;5527034;26;19928;-72
2024/04/09 09:06:44;;;;;;;;;;;;;;;15.09;80.50;101296.09;5497160;26;19959;-72
2024/04/09 09:09:20;;;;;;;;;;;;;;;15.16;79.76;101288.97;5526962;26;19934;-71
2024/04/09 09:11:46;;;;;;;;;;;;;;;15.13;79.54;101297.38;5526847;26;19935;-68
2024/04/09 09:14:11;;;;;;;;;;;;;;;15.07;75.92;101292.75;5527072;26;19996;-69
2024/04/09 09:16:38;;;;;;;;;;;;;;;14.96;77.67;101295.81;5526673;26;19934;-70
2024/04/09 09:19:06;;;;;;;;;;;;;;;14.91;78.05;101300.91;5526574;26;19935;-71
2024/04/09 09:21:32;;;;;;;;;;;;;;;14.92;79.16;101291.84;5528002;26;19936;-73
2024/04/09 09:23:57;;;;;;;;;;;;;;;14.93;79.23;101298.88;5527534;26;19934;-67
2024/04/09 09:26:24;;;;;;;;;;;;;;;14.91;78.88;101294.69;5526552;26;19935;-72
2024/04/09 09:28:49;;;;;;;;;;;;;;;15.00;78.53;101299.81;5526397;26;19932;-70
2024/04/09 09:31:17;;;;;;;;;;;;;;;15.10;78.46;101300.44;5525841;26;19938;-69
2024/04/09 09:33:45;;;;;;;;;;;;;;;15.23;78.54;101304.34;5493823;26;20266;-71
2024/04/09 09:36:13;;;;;;;;;;;;;;;15.16;74.81;101305.06;5526934;26;19935;-72
2024/04/09 09:38:39;;;;;;;;;;;;;;;15.04;75.60;101301.16;5522875;25;19927;-69
2024/04/09 09:41:06;;;;;;;;;;;;;;;14.90;75.94;101304.59;5563263;25;19934;-71
2024/04/09 09:43:32;;;;;;;;;;;;;;;14.86;77.09;101303.28;5552872;25;19944;-69
2024/04/09 09:45:58;;;;;;;;;;;;;;;14.97;77.22;101300.19;5526316;25;19934;-71
2024/04/09 09:48:24;;;;;;;;;;;;;;;14.97;76.47;101294.81;5564343;25;19991;-69
2024/04/09 09:50:50;;;;;;;;;;;;;;;15.14;78.14;101300.91;5563647;25;19927;-72
2024/04/09 09:53:19;;;;;;;;;;;;;;;15.36;77.65;101289.34;5566022;25;19934;-69
2024/04/09 09:55:45;;;;;;;;;;;;;;;15.58;77.24;101292.13;5568686;25;19927;-70
2024/04/09 09:58:14;;;;;;;;;;;;;;;15.69;75.98;101291.75;5567688;25;19935;-70
2024/04/09 10:00:41;;;;;;;;;;;;;;;15.85;76.31;101290.72;5563471;25;19927;-70
2024/04/09 10:03:07;;;;;;;;;;;;;;;15.94;75.08;101297.69;5563313;25;19938;-69
2024/04/09 10:05:34;;;;;;;;;;;;;;;15.98;73.24;101297.13;5563450;25;19926;-68
2024/04/09 10:07:59;;;;;;;;;;;;;;;15.98;73.49;101293.63;5563791;25;19938;-71
2024/04/09 10:10:25;;;;;;;;;;;;;;;15.99;72.70;101293.44;5564681;25;19926;-67
2024/04/09 10:12:52;;;;;;;;;;;;;;;15.95;74.15;101278.72;5563456;25;20383;-69
2024/04/09 10:15:24;;;;;;;;;;;;;;;15.98;71.44;101288.25;5564324;25;19994;-70
2024/04/09 10:17:53;;;;;;;;;;;;;;;15.92;71.19;101279.09;5564175;25;19927;-69
2024/04/09 10:20:35;;;;;;;;;;;;;;;15.78;71.21;101283.41;5563959;25;19934;-70
2024/04/09 10:23:01;;;;;;;;;;;;;;;15.57;72.17;101277.03;5541284;25;19927;-70
2024/04/09 10:25:30;;;;;;;;;;;;;;;15.61;72.94;101271.19;5570176;25;20450;-71
2024/04/09 10:28:08;;;;;;;;;;;;;;;15.80;74.06;101270.63;5535327;25;19931;-75
2024/04/09 10:30:39;;;;;;;;;;;;;;;16.03;72.22;101264.34;5533338;25;19926;-72
2024/04/09 10:33:06;;;;;;;;;;;;;;;15.94;70.88;101260.94;5565014;25;19927;-70
2024/04/09 10:35:33;;;;;;;;;;;;;;;15.86;69.77;101262.84;5528381;25;20046;-72
2024/04/09 10:38:05;;;;;;;;;;;;;;;15.76;70.68;101255.91;5483646;25;19996;-70
2024/04/09 10:40:33;;;;;;;;;;;;;;;15.82;72.52;101256.19;5540502;25;19935;-71
2024/04/09 10:43:02;;;;;;;;;;;;;;;15.86;71.46;101254.78;5562427;25;19931;-71
2024/04/09 10:45:28;;;;;;;;;;;;;;;15.88;72.55;101250.06;5566975;25;19935;-70
2024/04/09 10:47:53;;;;;;;;;;;;;;;15.88;71.22;101261.63;5569654;25;19994;-71
2024/04/09 10:50:18;;;;;;;;;;;;;;;15.83;71.14;101269.44;5539081;25;19935;-70
2024/04/09 10:52:46;;;;;;;;;;;;;;;15.90;72.63;101264.13;5576577;25;19927;-69
2024/04/09 10:55:13;;;;;;;;;;;;;;;16.03;69.78;101275.09;5539419;25;20271;-70
2024/04/09 10:57:40;;;;;;;;;;;;;;;15.77;70.25;101276.38;5567292;25;20467;-69
2024/04/09 11:00:09;;;;;;;;;;;;;;;15.37;72.17;101279.44;5561669;25;19939;-71
2024/04/09 11:02:36;;;;;;;;;;;;;;;15.08;72.91;101281.00;5561116;25;20416;-69
2024/04/09 11:05:02;;;;;;;;;;;;;;;14.86;73.65;101284.50;5528225;25;19938;-70
2024/04/09 11:07:32;;;;;;;;;;;;;;;14.69;74.23;101280.25;5528328;25;19927;-68
2024/04/09 11:09:57;;;;;;;;;;;;;;;14.65;75.18;101278.94;5560703;25;19994;-70
2024/04/09 11:12:23;;;;;;;;;;;;;;;14.69;75.32;101278.41;5564088;25;20361;-69
2024/04/09 11:14:48;;;;;;;;;;;;;;;14.77;74.72;101277.53;5527866;25;20252;-70
2024/04/09 11:17:17;;;;;;;;;;;;;;;14.91;75.12;101271.41;5560878;25;20366;-73
2024/04/09 11:19:43;;;;;;;;;;;;;;;14.93;74.55;101281.94;5528574;25;19959;-71
2024/04/09 11:22:10;;;;;;;;;;;;;;;14.76;74.38;101267.81;5559944;25;19927;-68
2024/04/09 11:24:36;;;;;;;;;;;;;;;14.83;74.56;101266.09;5560692;25;19934;-69
2024/04/09 11:27:01;;;;;;;;;;;;;;;14.91;74.10;101274.06;5497578;25;19934;-70
2024/04/09 11:29:27;;;;;;;;;;;;;;;15.03;74.34;101274.47;5561696;25;19934;-70
2024/04/09 11:31:54;;;;;;;;;;;;;;;15.15;74.10;101279.25;5520921;26;20003;-70
2024/04/09 11:34:25;;;;;;;;;;;;;;;15.14;72.43;101285.66;5520108;26;20748;-71
2024/04/09 11:36:51;;;;;;;;;;;;;;;15.13;73.22;101283.16;5523022;25;19938;-71
2024/04/09 11:39:19;;;;;;;;;;;;;;;15.13;74.04;101288.50;5521174;26;20355;-70
2024/04/09 11:41:44;;;;;;;;;;;;;;;15.27;74.17;101289.56;5521022;26;19927;-69
2024/04/09 11:44:09;;;;;;;;;;;;;;;15.39;73.87;101272.88;5522927;25;19937;-68
2024/04/09 11:46:35;;;;;;;;;;;;;;;15.44;72.34;101281.19;5523924;26;19957;-69
2024/04/09 11:49:00;;;;;;;;;;;;;;;15.43;72.94;101273.34;5523963;26;19934;-69
2024/04/09 11:51:25;;;;;;;;;;;;;;;15.41;72.41;101264.63;5523005;26;19938;-68
2024/04/09 11:53:51;;;;;;;;;;;;;;;15.42;73.01;101259.06;5521937;26;20292;-71
2024/04/09 11:56:16;;;;;;;;;;;;;;;15.45;69.74;101260.56;5521769;26;20034;-69
2024/04/09 11:58:47;;;;;;;;;;;;;;;15.50;69.74;101268.91;5523927;25;19928;-71
2024/04/09 12:01:13;;;;;;;;;;;;;;;15.51;69.46;101262.50;5523527;25;19927;-70
2024/04/09 12:03:39;;;;;;;;;;;;;;;15.57;69.33;101264.44;5522908;25;19934;-71
2024/04/09 12:06:04;;;;;;;;;;;;;;;15.56;66.31;101270.84;5522321;25;19931;-70
2024/04/09 12:08:29;;;;;;;;;;;;;;;15.57;67.48;101261.78;5525233;26;19927;-68
2024/04/09 12:10:56;;;;;;;;;;;;;;;15.59;66.51;101257.09;5523739;26;19934;-71
2024/04/09 12:13:22;;;;;;;;;;;;;;;15.63;67.33;101247.66;5492379;26;19928;-69
2024/04/09 12:15:48;;;;;;;;;;;;;;;15.72;67.96;101246.56;5525961;26;19935;-71
2024/04/09 12:18:13;;;;;;;;;;;;;;;15.82;66.79;101250.81;5520610;26;20019;-71
2024/04/09 12:20:38;;;;;;;;;;;;;;;15.85;66.61;101245.06;5520401;26;19927;-72
2024/04/09 12:23:04;;;;;;;;;;;;;;;15.79;62.79;101246.66;5524066;25;19928;-68
2024/04/09 12:25:29;;;;;;;;;;;;;;;15.81;64.40;101241.91;5522755;26;19927;-69
2024/04/09 12:27:54;;;;;;;;;;;;;;;15.83;62.48;101244.41;5521998;25;19927;-70
2024/04/09 12:30:20;;;;;;;;;;;;;;;15.89;64.98;101249.03;5512921;26;19936;-68